Time;durP1;ratioP1;P1;durP2;ratioP2;P2;SDS_P1;SDS_P2;PMS_P1;PMS_P2;Temp;Humidity;BMP_temperature;BMP_pressure;BME280_temperature;BME280_humidity;BME280_pressure;Samples;Min_cycle;Max_cycle;Signal;HPM_P1;HPM_P2
2024/01/09 00:02:09;;;;;;;8.70;2.28;;;;;;;;;;5055057;28;20051;-76
2024/01/09 00:05:50;;;;;;;4.55;2.30;;;;;;;;;;5063871;28;20438;-78
2024/01/09 00:09:30;;;;;;;6.75;2.42;;;;;;;;;;5070575;28;20109;-76
2024/01/09 00:13:10;;;;;;;5.78;2.30;;;;;;;;;;5070756;28;20127;-78
2024/01/09 00:16:52;;;;;;;4.93;2.28;;;;;;;;;;5078900;28;20107;-76
2024/01/09 00:20:35;;;;;;;5.75;2.47;;;;;;;;;;5075521;28;20101;-78
2024/01/09 00:24:15;;;;;;;4.32;2.15;;;;;;;;;;5069448;28;20731;-76
2024/01/09 00:27:59;;;;;;;3.33;2.13;;;;;;;;;;5068701;28;20075;-76
2024/01/09 00:31:40;;;;;;;4.13;1.98;;;;;;;;;;5073201;28;20389;-76
2024/01/09 00:35:20;;;;;;;5.72;1.90;;;;;;;;;;5069283;28;20048;-79
2024/01/09 00:39:01;;;;;;;5.30;2.13;;;;;;;;;;5070087;28;20055;-75
2024/01/09 00:42:41;;;;;;;4.47;2.28;;;;;;;;;;5069135;28;20235;-76
2024/01/09 00:46:21;;;;;;;5.60;1.83;;;;;;;;;;5081630;28;20079;-77
2024/01/09 00:50:07;;;;;;;4.75;1.85;;;;;;;;;;5072882;28;20044;-73
2024/01/09 00:53:47;;;;;;;5.60;2.08;;;;;;;;;;5076365;28;20148;-76
2024/01/09 00:57:28;;;;;;;4.75;2.00;;;;;;;;;;5065833;28;20048;-78
2024/01/09 01:01:10;;;;;;;5.43;1.90;;;;;;;;;;5074844;28;20330;-80
2024/01/09 01:04:57;;;;;;;3.38;2.03;;;;;;;;;;5064048;28;20052;-79
2024/01/09 01:08:38;;;;;;;3.63;1.80;;;;;;;;;;5064251;28;20496;-78
2024/01/09 01:12:19;;;;;;;3.03;1.70;;;;;;;;;;5071837;28;20044;-77
2024/01/09 01:15:59;;;;;;;3.17;1.60;;;;;;;;;;5063929;28;20412;-78
2024/01/09 01:19:41;;;;;;;4.65;1.80;;;;;;;;;;5067512;28;20044;-76
2024/01/09 01:23:23;;;;;;;3.33;1.80;;;;;;;;;;5072201;28;20040;-78
2024/01/09 01:27:04;;;;;;;3.30;1.90;;;;;;;;;;5065250;28;20327;-78
2024/01/09 01:30:49;;;;;;;4.40;2.10;;;;;;;;;;5070028;28;20036;-76
2024/01/09 01:34:31;;;;;;;3.03;1.92;;;;;;;;;;5062131;28;20056;-77
2024/01/09 01:38:11;;;;;;;2.88;1.80;;;;;;;;;;5067266;28;20093;-77
2024/01/09 01:41:51;;;;;;;4.75;2.00;;;;;;;;;;5060054;28;20071;-77
2024/01/09 01:45:34;;;;;;;7.07;1.83;;;;;;;;;;5067429;28;20125;-76
2024/01/09 01:49:15;;;;;;;3.67;1.90;;;;;;;;;;5070202;28;20049;-77
2024/01/09 01:52:56;;;;;;;3.38;1.80;;;;;;;;;;5065465;28;20522;-78
2024/01/09 01:56:37;;;;;;;3.25;1.90;;;;;;;;;;5065808;28;20040;-77
2024/01/09 02:00:18;;;;;;;5.70;1.80;;;;;;;;;;5063039;28;20045;-77
2024/01/09 02:03:59;;;;;;;3.92;2.00;;;;;;;;;;5069166;28;20127;-78
2024/01/09 02:07:40;;;;;;;31.75;2.78;;;;;;;;;;5073896;28;20400;-78
2024/01/09 02:11:20;;;;;;;4.57;1.92;;;;;;;;;;5065476;28;20515;-77
2024/01/09 02:15:00;;;;;;;4.20;1.88;;;;;;;;;;5070371;28;20416;-77
2024/01/09 02:18:43;;;;;;;2.95;1.70;;;;;;;;;;5072152;28;20051;-78
2024/01/09 02:22:24;;;;;;;4.30;1.98;;;;;;;;;;5069513;28;20033;-78
2024/01/09 02:26:06;;;;;;;3.40;2.10;;;;;;;;;;5064462;28;20102;-78
2024/01/09 02:29:47;;;;;;;4.82;2.10;;;;;;;;;;5064314;28;20049;-77
2024/01/09 02:33:27;;;;;;;8.52;2.38;;;;;;;;;;5069352;28;20058;-76
2024/01/09 02:37:08;;;;;;;3.33;1.95;;;;;;;;;;5061369;28;20988;-77
2024/01/09 02:40:49;;;;;;;4.78;1.98;;;;;;;;;;5068141;28;20079;-77
2024/01/09 02:44:31;;;;;;;4.60;2.30;;;;;;;;;;5063967;28;20109;-79
2024/01/09 02:48:11;;;;;;;7.05;2.38;;;;;;;;;;5066857;28;20372;-81
2024/01/09 02:51:51;;;;;;;6.75;2.00;;;;;;;;;;5067576;28;20058;-76
2024/01/09 02:55:34;;;;;;;4.13;2.15;;;;;;;;;;5061672;28;20454;-76
2024/01/09 02:59:15;;;;;;;5.93;2.13;;;;;;;;;;5059606;28;20045;-79
2024/01/09 03:02:55;;;;;;;5.60;2.47;;;;;;;;;;5063842;28;20093;-78
2024/01/09 03:06:37;;;;;;;5.18;2.20;;;;;;;;;;5066716;28;20052;-77
2024/01/09 03:10:17;;;;;;;7.72;2.13;;;;;;;;;;5071816;28;20415;-76
2024/01/09 03:13:57;;;;;;;3.22;2.13;;;;;;;;;;5058106;28;20072;-78
2024/01/09 03:17:39;;;;;;;5.00;2.40;;;;;;;;;;5067161;28;20052;-76
2024/01/09 03:21:19;;;;;;;6.60;2.08;;;;;;;;;;5073805;28;20419;-78
2024/01/09 03:25:00;;;;;;;3.08;1.98;;;;;;;;;;5068242;28;20048;-77
2024/01/09 03:28:40;;;;;;;2.97;2.00;;;;;;;;;;5083676;28;20044;-76
2024/01/09 03:32:23;;;;;;;8.18;2.10;;;;;;;;;;5075567;28;20664;-77
2024/01/09 03:36:03;;;;;;;4.55;2.35;;;;;;;;;;5065590;28;20125;-79
2024/01/09 03:39:43;;;;;;;3.47;2.25;;;;;;;;;;5074244;28;20119;-77
2024/01/09 03:43:24;;;;;;;4.32;2.33;;;;;;;;;;5072630;28;20083;-77
2024/01/09 03:47:04;;;;;;;3.78;2.00;;;;;;;;;;5066738;28;20398;-78
2024/01/09 03:50:44;;;;;;;3.30;2.05;;;;;;;;;;5065286;28;20244;-78
2024/01/09 03:54:26;;;;;;;4.07;2.05;;;;;;;;;;5059005;28;20498;-78
2024/01/09 03:58:07;;;;;;;3.35;1.85;;;;;;;;;;5076708;28;20059;-78
2024/01/09 04:01:48;;;;;;;3.95;2.22;;;;;;;;;;5074683;28;20101;-78
2024/01/09 04:05:28;;;;;;;6.40;2.40;;;;;;;;;;5084020;28;20468;-77
2024/01/09 04:09:10;;;;;;;4.55;2.35;;;;;;;;;;5083310;28;20143;-78
2024/01/09 04:12:50;;;;;;;3.53;2.03;;;;;;;;;;5068393;28;20144;-77
2024/01/09 04:16:31;;;;;;;6.05;2.05;;;;;;;;;;5068330;28;20048;-78
2024/01/09 04:20:11;;;;;;;7.35;2.40;;;;;;;;;;5076449;28;20086;-77
2024/01/09 04:23:51;;;;;;;4.13;2.40;;;;;;;;;;5073251;28;20086;-77
2024/01/09 04:27:32;;;;;;;10.15;2.80;;;;;;;;;;5070705;28;20473;-77
2024/01/09 04:31:12;;;;;;;6.43;2.78;;;;;;;;;;5068486;28;20049;-77
2024/01/09 04:34:53;;;;;;;6.07;2.83;;;;;;;;;;5067251;28;20044;-78
2024/01/09 04:38:33;;;;;;;4.93;3.20;;;;;;;;;;5064035;28;20044;-76
2024/01/09 04:42:13;;;;;;;7.22;3.10;;;;;;;;;;5066509;28;20473;-79
2024/01/09 04:45:54;;;;;;;9.90;3.15;;;;;;;;;;5071376;28;20421;-78
2024/01/09 04:49:34;;;;;;;7.25;3.17;;;;;;;;;;5077822;28;20040;-77
2024/01/09 04:53:15;;;;;;;8.63;3.20;;;;;;;;;;5064538;28;20839;-76
2024/01/09 04:56:55;;;;;;;7.10;3.40;;;;;;;;;;5066523;28;20100;-75
2024/01/09 05:00:35;;;;;;;12.68;3.45;;;;;;;;;;5064442;28;20442;-76
2024/01/09 05:04:15;;;;;;;9.00;3.13;;;;;;;;;;5067327;28;20041;-76
2024/01/09 05:07:56;;;;;;;4.93;2.22;;;;;;;;;;5064557;28;20048;-76
2024/01/09 05:11:36;;;;;;;4.30;2.30;;;;;;;;;;5066003;28;20063;-76
2024/01/09 05:15:23;;;;;;;4.95;2.83;;;;;;;;;;5061267;28;20387;-77
2024/01/09 05:19:04;;;;;;;4.55;2.33;;;;;;;;;;5062930;28;20045;-77
2024/01/09 05:22:46;;;;;;;3.22;1.80;;;;;;;;;;5071173;28;20086;-79
2024/01/09 05:26:27;;;;;;;4.85;1.90;;;;;;;;;;5071481;28;20060;-76
2024/01/09 05:30:11;;;;;;;3.88;1.90;;;;;;;;;;5070575;28;20044;-75
2024/01/09 05:33:52;;;;;;;8.27;2.38;;;;;;;;;;5069672;28;20098;-77
2024/01/09 05:37:34;;;;;;;4.85;2.17;;;;;;;;;;5060478;28;20041;-77
2024/01/09 05:41:15;;;;;;;5.78;2.00;;;;;;;;;;5068079;28;20385;-76
2024/01/09 05:44:56;;;;;;;3.63;1.90;;;;;;;;;;5071039;28;20508;-77
2024/01/09 05:48:37;;;;;;;3.10;2.00;;;;;;;;;;5070108;28;20040;-77
2024/01/09 05:52:18;;;;;;;4.78;2.00;;;;;;;;;;5067131;28;20415;-77
2024/01/09 05:56:01;;;;;;;4.20;2.13;;;;;;;;;;5068158;28;20036;-77
2024/01/09 05:59:43;;;;;;;4.60;2.00;;;;;;;;;;5059715;28;20051;-79
2024/01/09 06:03:24;;;;;;;4.35;1.90;;;;;;;;;;5068281;28;20055;-77
2024/01/09 06:07:05;;;;;;;11.60;1.80;;;;;;;;;;5060871;28;20083;-77
2024/01/09 06:10:45;;;;;;;5.30;2.15;;;;;;;;;;5068023;28;20476;-77
2024/01/09 06:14:25;;;;;;;3.40;1.73;;;;;;;;;;5066942;28;20132;-77
2024/01/09 06:18:07;;;;;;;4.75;1.73;;;;;;;;;;5072797;28;20238;-77
2024/01/09 06:21:46;;;;;;;4.43;1.63;;;;;;;;;;5067582;28;20128;-78
2024/01/09 06:25:28;;;;;;;4.28;1.85;;;;;;;;;;5071909;28;20131;-77
2024/01/09 06:29:08;;;;;;;9.38;1.80;;;;;;;;;;5066142;28;20075;-77
2024/01/09 06:32:48;;;;;;;5.70;1.95;;;;;;;;;;5064281;28;20049;-76
2024/01/09 06:36:29;;;;;;;5.50;2.10;;;;;;;;;;5074339;28;20372;-78
2024/01/09 06:40:09;;;;;;;6.45;2.03;;;;;;;;;;5064093;28;20052;-79
2024/01/09 06:43:50;;;;;;;4.55;2.10;;;;;;;;;;5060196;28;20068;-78
2024/01/09 06:47:30;;;;;;;9.70;2.17;;;;;;;;;;5061094;28;20047;-78
2024/01/09 06:51:11;;;;;;;6.25;2.33;;;;;;;;;;5077243;28;20500;-78
2024/01/09 06:54:51;;;;;;;10.27;2.30;;;;;;;;;;5065384;28;20135;-77
2024/01/09 06:58:32;;;;;;;6.85;2.30;;;;;;;;;;5070972;28;20081;-77
2024/01/09 07:01:53;;;;;;;4.25;2.40;;;;;;;;;;5066518;28;20060;-77
2024/01/09 07:04:59;;;;;;;7.05;2.08;;;;;;;;;;5055283;28;20056;-78
2024/01/09 07:08:41;;;;;;;4.88;2.03;;;;;;;;;;5060705;28;20137;-76
2024/01/09 07:12:21;;;;;;;13.70;2.70;;;;;;;;;;5066142;28;20164;-77
2024/01/09 07:16:01;;;;;;;9.82;2.63;;;;;;;;;;5072299;28;20056;-76
2024/01/09 07:19:41;;;;;;;13.07;4.88;;;;;;;;;;5066541;28;20127;-78
2024/01/09 07:23:24;;;;;;;10.27;4.10;;;;;;;;;;5061940;28;20040;-78
2024/01/09 07:27:06;;;;;;;11.95;3.65;;;;;;;;;;5061464;28;20032;-77
2024/01/09 07:30:47;;;;;;;12.60;3.72;;;;;;;;;;5060330;28;20118;-78
2024/01/09 07:34:26;;;;;;;12.45;3.95;;;;;;;;;;5064609;28;21945;-76
2024/01/09 07:38:07;;;;;;;14.00;4.43;;;;;;;;;;5068481;28;20047;-78
2024/01/09 07:41:49;;;;;;;18.25;3.72;;;;;;;;;;5065934;28;20555;-76
2024/01/09 07:45:29;;;;;;;15.13;3.30;;;;;;;;;;5066013;28;20049;-76
2024/01/09 07:49:09;;;;;;;18.50;4.25;;;;;;;;;;5062153;28;20064;-63
2024/01/09 07:52:50;;;;;;;7.18;3.20;;;;;;;;;;5059279;28;20084;-75
2024/01/09 07:56:36;;;;;;;10.95;2.85;;;;;;;;;;5056341;28;20078;-76
2024/01/09 08:00:17;;;;;;;18.13;3.63;;;;;;;;;;5058676;28;20080;-75
2024/01/09 08:03:58;;;;;;;7.25;2.90;;;;;;;;;;5064523;28;20400;-75
2024/01/09 08:07:39;;;;;;;11.38;3.03;;;;;;;;;;5062583;28;20056;-75
2024/01/09 08:11:19;;;;;;;23.55;3.05;;;;;;;;;;5065678;28;20059;-74
2024/01/09 08:15:00;;;;;;;11.18;2.95;;;;;;;;;;5067653;28;20123;-74
2024/01/09 08:18:42;;;;;;;9.00;2.92;;;;;;;;;;5063825;28;20214;-73
2024/01/09 08:22:32;;;;;;;13.32;3.45;;;;;;;;;;5053822;28;20068;-73
2024/01/09 08:26:16;;;;;;;6.13;2.50;;;;;;;;;;5063139;28;20659;-75
2024/01/09 08:29:56;;;;;;;13.90;3.75;;;;;;;;;;5063230;28;20262;-74
2024/01/09 08:33:36;;;;;;;13.30;3.63;;;;;;;;;;5060606;28;20064;-74
2024/01/09 08:37:19;;;;;;;11.40;3.30;;;;;;;;;;5065472;28;20155;-75
2024/01/09 08:41:02;;;;;;;20.80;3.72;;;;;;;;;;5068632;28;20048;-74
2024/01/09 08:44:43;;;;;;;18.08;3.95;;;;;;;;;;5059597;28;20059;-76
2024/01/09 08:48:23;;;;;;;17.08;4.20;;;;;;;;;;5059366;28;20404;-74
2024/01/09 08:52:04;;;;;;;16.13;4.55;;;;;;;;;;5066218;28;20056;-73
2024/01/09 08:55:44;;;;;;;25.08;4.60;;;;;;;;;;5064069;28;20059;-73
2024/01/09 08:59:25;;;;;;;12.68;4.00;;;;;;;;;;5065999;28;20063;-75
2024/01/09 09:03:05;;;;;;;16.73;4.60;;;;;;;;;;5067852;28;20056;-74
2024/01/09 09:06:46;;;;;;;16.13;4.50;;;;;;;;;;5061960;28;20136;-74
2024/01/09 09:10:26;;;;;;;19.33;4.55;;;;;;;;;;5060322;28;20048;-75
2024/01/09 09:14:06;;;;;;;22.70;4.55;;;;;;;;;;5068322;28;20033;-72
2024/01/09 09:17:47;;;;;;;13.98;4.75;;;;;;;;;;5066980;28;20068;-73
2024/01/09 09:21:27;;;;;;;11.27;4.00;;;;;;;;;;5074928;28;20044;-76
2024/01/09 09:25:08;;;;;;;9.95;3.30;;;;;;;;;;5077995;28;20075;-75
2024/01/09 09:28:48;;;;;;;10.45;3.20;;;;;;;;;;5071154;28;20102;-76
2024/01/09 09:32:28;;;;;;;15.82;3.92;;;;;;;;;;5071161;28;20115;-76
2024/01/09 09:36:08;;;;;;;12.43;4.70;;;;;;;;;;5072097;28;20044;-82
2024/01/09 09:39:52;;;;;;;10.68;3.50;;;;;;;;;;5069560;28;20052;-80
2024/01/09 09:43:35;;;;;;;15.25;3.58;;;;;;;;;;5068516;28;20052;-81
2024/01/09 09:47:15;;;;;;;9.40;3.30;;;;;;;;;;5061666;28;20040;-73
2024/01/09 09:50:54;;;;;;;5.40;3.00;;;;;;;;;;5067900;28;20056;-73
2024/01/09 09:54:37;;;;;;;6.95;2.45;;;;;;;;;;5060311;28;20472;-74
2024/01/09 09:57:37;;;;;;;4.63;2.60;;;;;;;;;;5061685;28;20232;-75
2024/01/09 10:00:08;;;;;;;7.00;2.60;;;;;;;;;;5063926;28;20066;-74
2024/01/09 10:02:42;;;;;;;9.18;2.67;;;;;;;;;;5066481;28;20044;-77
2024/01/09 10:05:13;;;;;;;5.00;2.33;;;;;;;;;;5067903;28;20059;-74
2024/01/09 10:07:43;;;;;;;10.50;2.40;;;;;;;;;;5063655;28;20045;-76
2024/01/09 10:10:12;;;;;;;8.18;2.40;;;;;;;;;;5064455;28;20388;-74
2024/01/09 10:12:39;;;;;;;5.18;2.50;;;;;;;;;;5066887;28;20593;-73
2024/01/09 10:15:09;;;;;;;3.60;2.20;;;;;;;;;;5066975;28;20040;-74
2024/01/09 10:17:38;;;;;;;4.07;2.17;;;;;;;;;;5061850;28;20037;-74
2024/01/09 10:20:08;;;;;;;4.20;2.13;;;;;;;;;;5055242;28;20053;-74
2024/01/09 10:22:37;;;;;;;3.88;1.90;;;;;;;;;;5082804;28;20072;-72
2024/01/09 10:25:08;;;;;;;8.55;2.97;;;;;;;;;;5073292;28;20048;-75
2024/01/09 10:27:38;;;;;;;3.58;2.20;;;;;;;;;;5060903;28;20488;-74
2024/01/09 10:30:07;;;;;;;4.28;2.00;;;;;;;;;;5071730;28;20052;-74
2024/01/09 10:32:37;;;;;;;5.30;2.10;;;;;;;;;;5060099;28;20044;-74
2024/01/09 10:35:05;;;;;;;5.10;1.92;;;;;;;;;;5042351;28;20057;-74
2024/01/09 10:37:35;;;;;;;4.00;2.60;;;;;;;;;;5076474;28;20076;-75
2024/01/09 10:40:11;;;;;;;4.15;2.10;;;;;;;;;;5064057;28;20053;-73
2024/01/09 10:42:47;;;;;;;10.60;2.20;;;;;;;;;;5070868;28;20048;-73
2024/01/09 10:45:19;;;;;;;5.15;2.30;;;;;;;;;;5065320;28;20404;-74
2024/01/09 10:47:47;;;;;;;4.35;1.98;;;;;;;;;;5066163;28;20056;-76
2024/01/09 10:50:15;;;;;;;6.45;2.20;;;;;;;;;;5070338;28;20056;-73
2024/01/09 10:52:47;;;;;;;6.20;1.90;;;;;;;;;;5065989;28;20578;-74
2024/01/09 10:55:15;;;;;;;5.57;2.25;;;;;;;;;;5048626;28;20508;-74
2024/01/09 10:57:41;;;;;;;3.17;2.10;;;;;;;;;;5044127;28;20041;-74
2024/01/09 11:00:11;;;;;;;4.00;2.17;;;;;;;;;;5064095;28;20574;-76
2024/01/09 11:02:38;;;;;;;7.38;2.47;;;;;;;;;;5050578;28;20135;-75
2024/01/09 11:05:07;;;;;;;6.28;2.33;;;;;;;;;;5050681;28;20131;-74
2024/01/09 11:07:34;;;;;;;8.27;2.55;;;;;;;;;;5050688;28;20489;-73
2024/01/09 11:10:00;;;;;;;4.97;2.30;;;;;;;;;;5060348;28;20467;-74
2024/01/09 11:12:42;;;;;;;4.53;2.38;;;;;;;;;;5051976;28;20053;-74
2024/01/09 11:15:15;;;;;;;5.57;2.30;;;;;;;;;;5054769;28;20657;-74
2024/01/09 11:17:44;;;;;;;4.72;2.17;;;;;;;;;;5049650;28;20497;-75
2024/01/09 11:20:15;;;;;;;4.00;1.92;;;;;;;;;;5056809;28;20581;-73
2024/01/09 11:22:44;;;;;;;4.63;2.25;;;;;;;;;;5053410;28;20052;-73
2024/01/09 11:25:21;;;;;;;6.82;2.03;;;;;;;;;;5044582;28;20120;-74
2024/01/09 11:27:49;;;;;;;6.70;1.98;;;;;;;;;;5042695;28;20057;-74
2024/01/09 11:30:36;;;;;;;3.03;1.70;;;;;;;;;;5046940;28;20056;-74
2024/01/09 11:33:30;;;;;;;10.13;1.77;;;;;;;;;;5046767;28;20063;-75
2024/01/09 11:36:07;;;;;;;9.83;2.57;;;;;;;;;;5059230;28;20065;-73
2024/01/09 11:38:37;;;;;;;6.25;2.08;;;;;;;;;;5054644;28;20113;-75
2024/01/09 11:41:09;;;;;;;8.70;2.28;;;;;;;;;;5052010;28;20049;-74
2024/01/09 11:44:15;;;;;;;6.53;1.90;;;;;;;;;;5046855;28;20280;-74
2024/01/09 11:46:43;;;;;;;5.55;2.50;;;;;;;;;;5045805;28;20072;-73
2024/01/09 11:49:13;;;;;;;9.68;2.17;;;;;;;;;;5046941;28;20052;-74
2024/01/09 11:51:42;;;;;;;8.52;2.63;;;;;;;;;;5050637;28;20115;-73
2024/01/09 11:54:09;;;;;;;5.75;2.50;;;;;;;;;;5049181;28;20057;-74
2024/01/09 11:56:36;;;;;;;6.22;2.20;;;;;;;;;;5054203;28;20073;-72
2024/01/09 11:59:03;;;;;;;6.00;2.20;;;;;;;;;;5051809;28;20033;-75
2024/01/09 12:01:29;;;;;;;6.05;2.10;;;;;;;;;;5046503;28;20048;-76
2024/01/09 12:03:59;;;;;;;5.57;2.03;;;;;;;;;;5064487;28;20043;-75
2024/01/09 12:06:33;;;;;;;6.63;2.53;;;;;;;;;;5053499;28;20091;-73
2024/01/09 12:08:59;;;;;;;11.25;2.35;;;;;;;;;;5052975;28;20049;-74
2024/01/09 12:11:28;;;;;;;3.97;2.28;;;;;;;;;;5049185;28;20139;-72
2024/01/09 12:13:59;;;;;;;6.85;2.55;;;;;;;;;;5054765;28;20520;-75
2024/01/09 12:16:29;;;;;;;5.65;2.42;;;;;;;;;;5061590;28;20037;-74
2024/01/09 12:18:57;;;;;;;6.20;3.03;;;;;;;;;;5052419;28;20456;-74
2024/01/09 12:21:30;;;;;;;8.73;2.92;;;;;;;;;;5051523;28;20447;-75
2024/01/09 12:24:02;;;;;;;5.90;2.58;;;;;;;;;;5049279;28;20106;-75
2024/01/09 12:26:31;;;;;;;7.50;2.80;;;;;;;;;;5043391;28;20045;-74
2024/01/09 12:28:59;;;;;;;11.00;2.85;;;;;;;;;;5050277;28;20044;-74
2024/01/09 12:31:26;;;;;;;5.40;2.38;;;;;;;;;;5048924;28;20056;-73
2024/01/09 12:33:55;;;;;;;13.60;2.53;;;;;;;;;;5048297;28;20084;-75
2024/01/09 12:36:36;;;;;;;7.35;2.65;;;;;;;;;;5042226;28;20106;-74
2024/01/09 12:39:03;;;;;;;7.07;2.67;;;;;;;;;;5052570;28;20053;-72
2024/01/09 12:41:29;;;;;;;9.60;2.90;;;;;;;;;;5060052;28;20533;-74
2024/01/09 12:44:07;;;;;;;7.78;3.53;;;;;;;;;;5056069;28;20041;-74
2024/01/09 12:46:36;;;;;;;14.95;3.17;;;;;;;;;;5048228;28;20052;-74
2024/01/09 12:49:02;;;;;;;6.88;2.45;;;;;;;;;;5048064;28;20060;-75
2024/01/09 12:51:32;;;;;;;8.90;2.92;;;;;;;;;;5052752;28;20497;-75
2024/01/09 12:53:58;;;;;;;5.68;2.72;;;;;;;;;;5053303;28;20148;-72
2024/01/09 12:56:24;;;;;;;4.75;2.30;;;;;;;;;;5048740;28;20049;-73
2024/01/09 12:58:50;;;;;;;8.98;3.15;;;;;;;;;;5044259;28;20149;-75
2024/01/09 13:01:18;;;;;;;5.32;2.83;;;;;;;;;;5045581;28;20045;-73
2024/01/09 13:03:45;;;;;;;14.30;3.50;;;;;;;;;;5054236;28;20084;-74
2024/01/09 13:06:17;;;;;;;5.18;2.28;;;;;;;;;;5059754;28;20049;-73
2024/01/09 13:08:43;;;;;;;7.15;3.28;;;;;;;;;;5039538;28;20102;-73
2024/01/09 13:11:10;;;;;;;10.82;3.58;;;;;;;;;;5051048;28;20412;-73
2024/01/09 13:13:42;;;;;;;7.00;2.72;;;;;;;;;;5051539;28;20052;-74
2024/01/09 13:16:09;;;;;;;10.07;2.83;;;;;;;;;;5048523;28;20053;-74
2024/01/09 13:18:36;;;;;;;5.82;2.55;;;;;;;;;;5061842;28;20140;-74
2024/01/09 13:21:05;;;;;;;6.20;2.17;;;;;;;;;;5048755;28;20045;-72
2024/01/09 13:23:33;;;;;;;4.43;2.30;;;;;;;;;;5049206;28;20509;-75
2024/01/09 13:26:02;;;;;;;5.05;2.55;;;;;;;;;;5049420;28;20041;-75
2024/01/09 13:28:30;;;;;;;7.53;2.42;;;;;;;;;;5079776;28;20048;-75
2024/01/09 13:30:58;;;;;;;7.47;2.00;;;;;;;;;;5047229;28;20140;-73
2024/01/09 13:33:25;;;;;;;7.75;1.77;;;;;;;;;;5045922;28;20489;-75
2024/01/09 13:35:53;;;;;;;6.35;1.75;;;;;;;;;;5048394;28;20045;-75
2024/01/09 13:38:20;;;;;;;4.35;1.83;;;;;;;;;;5046893;28;20049;-73
2024/01/09 13:40:48;;;;;;;4.20;2.33;;;;;;;;;;5047096;28;20191;-73
2024/01/09 13:43:15;;;;;;;7.40;2.03;;;;;;;;;;5045611;28;20463;-76
2024/01/09 13:45:45;;;;;;;11.75;1.83;;;;;;;;;;5030584;28;20146;-73
2024/01/09 13:48:14;;;;;;;2.70;1.48;;;;;;;;;;5049544;28;20040;-74
2024/01/09 13:50:43;;;;;;;3.05;1.40;;;;;;;;;;5049822;28;20394;-73
2024/01/09 13:53:09;;;;;;;3.95;1.52;;;;;;;;;;5049747;28;20061;-73
2024/01/09 13:55:40;;;;;;;7.47;2.03;;;;;;;;;;5053786;28;20048;-76
2024/01/09 13:58:06;;;;;;;4.22;1.63;;;;;;;;;;5054086;28;20251;-76
2024/01/09 14:00:39;;;;;;;2.33;1.45;;;;;;;;;;5047600;28;20055;-73
2024/01/09 14:03:05;;;;;;;2.42;1.35;;;;;;;;;;5047427;28;20501;-74
2024/01/09 14:05:33;;;;;;;7.10;1.40;;;;;;;;;;5050244;28;20064;-73
2024/01/09 14:07:59;;;;;;;3.53;1.50;;;;;;;;;;5048510;28;20057;-74
2024/01/09 14:10:29;;;;;;;7.05;1.98;;;;;;;;;;5063659;28;20056;-74
2024/01/09 14:12:56;;;;;;;2.78;1.52;;;;;;;;;;5047016;28;20060;-72
2024/01/09 14:15:25;;;;;;;5.60;1.70;;;;;;;;;;5047174;28;20110;-75
2024/01/09 14:17:51;;;;;;;5.68;1.80;;;;;;;;;;5047939;28;20494;-73
2024/01/09 14:20:20;;;;;;;11.40;1.90;;;;;;;;;;5047639;28;20360;-75
2024/01/09 14:22:46;;;;;;;16.00;1.95;;;;;;;;;;5062792;28;20820;-74
2024/01/09 14:25:14;;;;;;;8.35;1.52;;;;;;;;;;5046541;28;20463;-72
2024/01/09 14:27:40;;;;;;;3.63;1.58;;;;;;;;;;5048849;28;20068;-75
2024/01/09 14:30:09;;;;;;;4.95;1.38;;;;;;;;;;5051296;28;20045;-72
2024/01/09 14:32:36;;;;;;;3.58;1.40;;;;;;;;;;5046084;28;20128;-75
2024/01/09 14:35:07;;;;;;;5.70;1.48;;;;;;;;;;5071807;28;20077;-74
2024/01/09 14:37:34;;;;;;;3.85;1.33;;;;;;;;;;5062460;28;20496;-74
2024/01/09 14:40:03;;;;;;;4.82;1.38;;;;;;;;;;5052592;28;20041;-74
2024/01/09 14:42:31;;;;;;;7.15;1.30;;;;;;;;;;5035740;28;20119;-73
2024/01/09 14:44:59;;;;;;;7.03;1.40;;;;;;;;;;5048290;28;20056;-75
2024/01/09 14:47:26;;;;;;;10.13;3.60;;;;;;;;;;5054139;28;20044;-73
2024/01/09 14:49:54;;;;;;;7.95;2.05;;;;;;;;;;5058906;28;20045;-73
2024/01/09 14:52:25;;;;;;;2.10;1.20;;;;;;;;;;5050113;28;20067;-74
2024/01/09 14:54:52;;;;;;;3.92;1.30;;;;;;;;;;5043369;28;20115;-74
2024/01/09 14:57:19;;;;;;;2.53;1.45;;;;;;;;;;5077823;28;20060;-75
2024/01/09 14:59:45;;;;;;;3.78;1.42;;;;;;;;;;5049222;28;20144;-74
2024/01/09 15:02:15;;;;;;;3.33;1.27;;;;;;;;;;5041861;28;20104;-75
2024/01/09 15:04:44;;;;;;;9.60;1.63;;;;;;;;;;5049049;28;20041;-75
2024/01/09 15:07:12;;;;;;;6.68;1.58;;;;;;;;;;5051201;28;20055;-75
2024/01/09 15:09:48;;;;;;;4.15;1.67;;;;;;;;;;5046955;28;20045;-72
2024/01/09 15:12:16;;;;;;;5.70;1.75;;;;;;;;;;5043306;28;20087;-76
2024/01/09 15:14:46;;;;;;;3.30;1.58;;;;;;;;;;5044321;28;20110;-75
2024/01/09 15:17:13;;;;;;;4.75;1.63;;;;;;;;;;5046698;28;20130;-75
2024/01/09 15:19:40;;;;;;;3.53;1.02;;;;;;;;;;5049984;28;21063;-74
2024/01/09 15:22:11;;;;;;;3.25;1.27;;;;;;;;;;5050574;28;20048;-76
2024/01/09 15:24:37;;;;;;;6.35;1.25;;;;;;;;;;5050672;28;20052;-73
2024/01/09 15:27:05;;;;;;;4.97;1.27;;;;;;;;;;5051750;28;20094;-77
2024/01/09 15:29:31;;;;;;;3.42;1.40;;;;;;;;;;5061277;28;20045;-73
2024/01/09 15:32:00;;;;;;;6.68;1.40;;;;;;;;;;5047007;28;20048;-75
2024/01/09 15:34:29;;;;;;;7.90;1.20;;;;;;;;;;5055084;28;20123;-76
2024/01/09 15:36:58;;;;;;;3.10;1.20;;;;;;;;;;5070645;28;20080;-81
2024/01/09 15:39:24;;;;;;;3.63;1.60;;;;;;;;;;5060906;28;20056;-79
2024/01/09 15:41:51;;;;;;;3.80;1.33;;;;;;;;;;5049814;28;20258;-79
2024/01/09 15:44:18;;;;;;;9.00;1.50;;;;;;;;;;5053231;28;20064;-74
2024/01/09 15:46:53;;;;;;;2.17;1.13;;;;;;;;;;5051525;28;20049;-73
2024/01/09 15:49:20;;;;;;;2.78;1.10;;;;;;;;;;5046839;28;20055;-75
2024/01/09 15:51:47;;;;;;;9.70;1.17;;;;;;;;;;5048019;28;20057;-76
2024/01/09 15:54:13;;;;;;;5.47;1.45;;;;;;;;;;5050856;28;20394;-78
2024/01/09 15:56:41;;;;;;;6.40;1.30;;;;;;;;;;5047189;28;20253;-76
2024/01/09 15:59:07;;;;;;;4.72;1.90;;;;;;;;;;5052427;28;20131;-78
2024/01/09 16:01:37;;;;;;;7.20;2.10;;;;;;;;;;5050658;28;20110;-77
2024/01/09 16:04:03;;;;;;;5.38;1.38;;;;;;;;;;5052347;28;20048;-76
2024/01/09 16:06:32;;;;;;;7.25;1.50;;;;;;;;;;5046174;28;20126;-78
2024/01/09 16:08:59;;;;;;;4.30;1.48;;;;;;;;;;5065129;28;20045;-70
2024/01/09 16:11:27;;;;;;;3.13;1.60;;;;;;;;;;5049011;28;20060;-70
2024/01/09 16:13:53;;;;;;;7.22;1.27;;;;;;;;;;5065861;28;20049;-75
2024/01/09 16:16:25;;;;;;;2.17;0.93;;;;;;;;;;5048045;28;20075;-72
2024/01/09 16:18:51;;;;;;;3.85;0.98;;;;;;;;;;5051552;28;20053;-72
2024/01/09 16:21:19;;;;;;;11.98;1.30;;;;;;;;;;5052531;28;20090;-77
2024/01/09 16:23:45;;;;;;;2.53;1.00;;;;;;;;;;5070739;28;20061;-79
2024/01/09 16:26:14;;;;;;;5.43;1.20;;;;;;;;;;5055127;28;20103;-79
2024/01/09 16:28:43;;;;;;;3.67;1.08;;;;;;;;;;5054880;28;20052;-78
2024/01/09 16:31:10;;;;;;;1.88;0.90;;;;;;;;;;5056968;28;20048;-78
2024/01/09 16:33:36;;;;;;;3.13;1.20;;;;;;;;;;5084885;28;20076;-79
2024/01/09 16:36:43;;;;;;;3.28;1.20;;;;;;;;;;5058182;28;20053;-76
2024/01/09 16:40:23;;;;;;;8.10;1.17;;;;;;;;;;5049580;28;20044;-74
2024/01/09 16:44:05;;;;;;;3.42;0.90;;;;;;;;;;5056801;28;20049;-75
2024/01/09 16:47:45;;;;;;;4.35;1.73;;;;;;;;;;5052768;28;20049;-78
2024/01/09 16:51:26;;;;;;;6.85;1.13;;;;;;;;;;5047927;28;20057;-73
2024/01/09 16:55:09;;;;;;;3.53;0.90;;;;;;;;;;5052527;28;20474;-76
2024/01/09 16:58:48;;;;;;;7.78;1.02;;;;;;;;;;5045591;28;20044;-72
2024/01/09 17:02:28;;;;;;;6.38;1.30;;;;;;;;;;5052067;28;20049;-77
2024/01/09 17:06:10;;;;;;;3.42;1.17;;;;;;;;;;5066583;28;20044;-78
2024/01/09 17:09:50;;;;;;;1.55;0.90;;;;;;;;;;5071168;28;20071;-81
2024/01/09 17:13:30;;;;;;;3.75;1.20;;;;;;;;;;5066155;28;20049;-79
2024/01/09 17:17:13;;;;;;;3.65;1.20;;;;;;;;;;5071583;28;20025;-81
2024/01/09 17:20:54;;;;;;;5.72;1.42;;;;;;;;;;5055843;28;20091;-79
2024/01/09 17:24:36;;;;;;;8.43;1.48;;;;;;;;;;5056651;28;20258;-82
2024/01/09 17:28:20;;;;;;;2.80;1.00;;;;;;;;;;5059924;28;20053;-80
2024/01/09 17:32:00;;;;;;;1.83;0.80;;;;;;;;;;5059500;28;20048;-82
2024/01/09 17:35:41;;;;;;;2.45;0.90;;;;;;;;;;5047205;28;20082;-76
2024/01/09 17:39:21;;;;;;;4.25;1.08;;;;;;;;;;5039526;28;20122;-73
2024/01/09 17:43:03;;;;;;;4.28;1.00;;;;;;;;;;5042032;28;20047;-76
2024/01/09 17:46:43;;;;;;;4.60;1.10;;;;;;;;;;5042321;28;20114;-75
2024/01/09 17:50:23;;;;;;;2.53;1.00;;;;;;;;;;5040979;28;20044;-73
2024/01/09 17:54:04;;;;;;;2.70;1.05;;;;;;;;;;5043144;28;20057;-73
2024/01/09 17:57:44;;;;;;;9.30;1.40;;;;;;;;;;5046510;28;20045;-73
2024/01/09 18:01:25;;;;;;;3.42;1.27;;;;;;;;;;5046517;28;20055;-73
2024/01/09 18:05:06;;;;;;;5.72;1.48;;;;;;;;;;5040061;28;20060;-75
2024/01/09 18:08:46;;;;;;;9.77;3.58;;;;;;;;;;5041004;28;20354;-73
2024/01/09 18:12:25;;;;;;;3.92;1.13;;;;;;;;;;5049359;28;20084;-73
2024/01/09 18:16:06;;;;;;;3.70;1.10;;;;;;;;;;5045234;28;20061;-73
2024/01/09 18:19:46;;;;;;;5.50;1.38;;;;;;;;;;5044740;28;20043;-73
2024/01/09 18:23:27;;;;;;;6.00;1.38;;;;;;;;;;5038222;28;20463;-73
2024/01/09 18:27:07;;;;;;;6.43;1.45;;;;;;;;;;5047692;28;20045;-74
2024/01/09 18:30:47;;;;;;;7.38;1.85;;;;;;;;;;5048183;28;20045;-73
2024/01/09 18:34:29;;;;;;;8.60;1.60;;;;;;;;;;5040732;28;20045;-73
2024/01/09 18:38:09;;;;;;;2.70;1.55;;;;;;;;;;5046387;28;20071;-76
2024/01/09 18:41:48;;;;;;;5.35;1.90;;;;;;;;;;5031307;28;20065;-71
2024/01/09 18:45:30;;;;;;;8.25;2.47;;;;;;;;;;5025294;28;20119;-73
2024/01/09 18:49:12;;;;;;;6.50;2.40;;;;;;;;;;5030510;28;20053;-73